createdAt,value
2022-09-12T00:01:13.271Z,6.87
2022-09-12T00:03:40.773Z,8.57
2022-09-12T00:06:11.323Z,7.43
2022-09-12T00:08:38.657Z,6.17
2022-09-12T00:11:08.668Z,7.77
2022-09-12T00:13:41.292Z,15.20
2022-09-12T00:16:16.898Z,8.10
2022-09-12T00:18:46.786Z,8.97
2022-09-12T00:21:15.207Z,6.87
2022-09-12T00:23:42.544Z,9.27
2022-09-12T00:26:09.747Z,7.03
2022-09-12T00:28:40.177Z,7.80
2022-09-12T00:31:10.785Z,9.87
2022-09-12T00:33:37.953Z,7.10
2022-09-12T00:36:11.351Z,9.23
2022-09-12T00:38:41.873Z,11.60
2022-09-12T00:41:21.923Z,12.60
2022-09-12T00:43:54.483Z,7.70
2022-09-12T00:46:28.177Z,6.73
2022-09-12T00:49:00.426Z,7.80
2022-09-12T00:51:31.282Z,9.53
2022-09-12T00:54:02.778Z,8.80
2022-09-12T00:56:30.036Z,6.57
2022-09-12T00:59:07.318Z,8.63
2022-09-12T01:01:35.474Z,6.53
2022-09-12T01:04:03.147Z,6.50
2022-09-12T01:06:37.527Z,8.23
2022-09-12T01:09:05.357Z,6.00
2022-09-12T01:11:36.013Z,6.97
2022-09-12T01:14:04.184Z,8.67
2022-09-12T01:16:31.617Z,6.87
2022-09-12T01:19:20.222Z,8.97
2022-09-12T01:22:07.849Z,6.27
2022-09-12T01:24:39.129Z,7.83
2022-09-12T01:27:27.834Z,7.57
2022-09-12T01:30:24.016Z,8.27
2022-09-12T01:33:35.448Z,8.27
2022-09-12T01:36:17.283Z,6.20
2022-09-12T01:38:44.600Z,5.83
2022-09-12T01:41:18.822Z,7.03
2022-09-12T01:43:54.727Z,6.60
2022-09-12T01:46:31.367Z,5.30
2022-09-12T01:49:05.899Z,5.33
2022-09-12T01:51:39.090Z,7.13
2022-09-12T01:54:33.967Z,6.37
2022-09-12T01:57:08.674Z,5.47
2022-09-12T01:59:44.834Z,5.33
2022-09-12T02:02:34.583Z,8.17
2022-09-12T02:05:08.290Z,4.87
2022-09-12T02:07:50.962Z,5.87
2022-09-12T02:10:22.576Z,6.90
2022-09-12T02:12:54.789Z,5.93
2022-09-12T02:15:27.323Z,7.63
2022-09-12T02:17:58.308Z,5.23
2022-09-12T02:20:47.286Z,5.50
2022-09-12T02:23:21.820Z,5.83
2022-09-12T02:25:56.905Z,4.50
2022-09-12T02:28:30.123Z,6.10
2022-09-12T02:31:29.987Z,7.40
2022-09-12T02:34:24.720Z,6.00
2022-09-12T02:37:04.012Z,7.33
2022-09-12T02:39:31.401Z,8.83
2022-09-12T02:42:01.040Z,11.40
2022-09-12T02:44:30.230Z,9.87
2022-09-12T02:47:04.842Z,10.90
2022-09-12T02:49:31.950Z,10.70
2022-09-12T02:52:01.344Z,9.80
2022-09-12T02:54:32.053Z,8.10
2022-09-12T02:56:59.279Z,9.53
2022-09-12T02:59:26.794Z,7.70
2022-09-12T03:02:06.107Z,12.87
2022-09-12T03:05:11.037Z,9.63
2022-09-12T03:07:56.943Z,16.37
2022-09-12T03:11:16.006Z,11.47
2022-09-12T03:13:45.751Z,10.37
2022-09-12T03:16:52.956Z,8.53
2022-09-12T03:19:53.557Z,11.23
2022-09-12T03:22:58.078Z,6.80
2022-09-12T03:25:36.570Z,8.83
2022-09-12T03:28:14.100Z,23.00
2022-09-12T03:30:47.391Z,6.83
2022-09-12T03:33:17.123Z,12.97
2022-09-12T03:35:44.275Z,27.87
2022-09-12T03:38:17.628Z,39.83
2022-09-12T03:40:44.961Z,25.53
2022-09-12T03:43:12.360Z,7.37
2022-09-12T03:45:39.859Z,31.97
2022-09-12T03:48:07.622Z,14.80
2022-09-12T03:50:34.775Z,25.13
2022-09-12T03:53:03.324Z,28.53
2022-09-12T03:55:31.142Z,33.40
2022-09-12T03:57:58.271Z,6.17
2022-09-12T04:00:25.431Z,6.20
2022-09-12T04:02:57.128Z,21.93
2022-09-12T04:05:25.386Z,7.33
2022-09-12T04:07:52.890Z,24.83
2022-09-12T04:10:20.046Z,8.47
2022-09-12T04:12:47.334Z,13.57
2022-09-12T04:15:14.648Z,14.10
2022-09-12T04:17:41.736Z,33.40
2022-09-12T04:20:11.042Z,23.13
2022-09-12T04:22:38.349Z,21.10
2022-09-12T04:25:09.613Z,14.23
2022-09-12T04:27:44.306Z,17.97
2022-09-12T04:30:20.473Z,21.47
2022-09-12T04:32:47.589Z,19.63
2022-09-12T04:35:14.749Z,26.93
2022-09-12T04:37:41.977Z,30.07
2022-09-12T04:40:09.678Z,38.33
2022-09-12T04:42:36.927Z,35.77
2022-09-12T04:45:06.266Z,22.47
2022-09-12T04:47:33.808Z,26.00
2022-09-12T04:50:02.126Z,12.20
2022-09-12T04:52:29.421Z,6.60
2022-09-12T04:54:56.525Z,10.70
2022-09-12T04:57:23.841Z,11.57
2022-09-12T04:59:50.973Z,7.77
2022-09-12T05:02:19.236Z,8.37
2022-09-12T05:04:47.059Z,8.47
2022-09-12T05:07:14.143Z,8.43
2022-09-12T05:09:41.716Z,10.27
2022-09-12T05:12:09.492Z,10.20
2022-09-12T05:14:36.884Z,18.57
2022-09-12T05:17:06.047Z,9.80
2022-09-12T05:19:34.909Z,14.30
2022-09-12T05:22:02.634Z,23.30
2022-09-12T05:24:30.093Z,13.97
2022-09-12T05:26:57.263Z,14.77
2022-09-12T05:29:25.273Z,18.07
2022-09-12T05:32:00.365Z,15.83
2022-09-12T05:34:27.975Z,10.07
2022-09-12T05:36:55.126Z,17.83
2022-09-12T05:39:22.294Z,16.77
2022-09-12T05:41:50.002Z,23.83
2022-09-12T05:44:17.816Z,30.90
2022-09-12T05:46:48.599Z,7.30
2022-09-12T05:49:15.769Z,22.40
2022-09-12T05:51:45.405Z,30.63
2022-09-12T05:54:18.059Z,29.87
2022-09-12T05:56:45.566Z,13.37
2022-09-12T05:59:15.482Z,11.20
2022-09-12T06:01:43.062Z,11.70
2022-09-12T06:04:10.653Z,8.33
2022-09-12T06:06:45.129Z,20.90
2022-09-12T06:09:17.535Z,16.47
2022-09-12T06:11:45.817Z,17.50
2022-09-12T06:14:17.018Z,11.77
2022-09-12T06:16:47.570Z,21.97
2022-09-12T06:19:20.271Z,15.17
2022-09-12T06:21:51.648Z,27.03
2022-09-12T06:24:20.318Z,14.27
2022-09-12T06:26:48.659Z,21.77
2022-09-12T06:29:16.297Z,23.17
2022-09-12T06:31:44.839Z,18.53
2022-09-12T06:34:14.535Z,11.27
2022-09-12T06:36:48.283Z,10.87
2022-09-12T06:39:24.499Z,8.20
2022-09-12T06:41:52.625Z,9.20
2022-09-12T06:44:32.882Z,12.40
2022-09-12T06:46:59.994Z,12.80
2022-09-12T06:49:27.134Z,9.70
2022-09-12T06:51:54.278Z,10.93
2022-09-12T06:54:21.392Z,10.30
2022-09-12T06:56:48.643Z,11.37
2022-09-12T06:59:15.799Z,9.80
2022-09-12T07:01:45.082Z,10.17
2022-09-12T07:04:12.230Z,9.63
2022-09-12T07:06:41.851Z,8.20
2022-09-12T07:09:12.548Z,10.53
2022-09-12T07:11:41.591Z,9.77
2022-09-12T07:14:12.304Z,8.87
2022-09-12T07:16:39.817Z,7.83
2022-09-12T07:19:08.264Z,6.00
2022-09-12T07:21:40.523Z,14.13
2022-09-12T07:24:10.186Z,10.93
2022-09-12T07:26:39.206Z,10.03
2022-09-12T07:29:35.409Z,6.80
2022-09-12T07:31:54.020Z,6.30
2022-09-12T07:34:21.159Z,10.87
2022-09-12T07:36:48.910Z,6.43
2022-09-12T07:39:16.280Z,7.73
2022-09-12T07:41:45.971Z,9.23
2022-09-12T07:44:13.031Z,5.93
2022-09-12T07:46:40.254Z,6.60
2022-09-12T07:49:08.466Z,6.80
2022-09-12T07:51:36.002Z,8.77
2022-09-12T07:54:08.052Z,8.20
2022-09-12T07:56:43.037Z,7.40
2022-09-12T07:59:10.338Z,7.00
2022-09-12T08:01:37.554Z,6.93
2022-09-12T08:04:05.160Z,7.13
2022-09-12T08:06:36.043Z,7.00
2022-09-12T08:09:05.037Z,6.33
2022-09-12T08:11:32.206Z,5.97
2022-09-12T08:14:02.924Z,6.93
2022-09-12T08:16:31.499Z,5.67
2022-09-12T08:19:01.075Z,6.63
2022-09-12T08:21:30.675Z,5.10
2022-09-12T08:24:04.039Z,4.73
2022-09-12T08:26:32.777Z,6.60
2022-09-12T08:29:00.984Z,6.83
2022-09-12T08:31:28.882Z,6.20
2022-09-12T08:33:56.926Z,6.63
2022-09-12T08:36:26.706Z,6.27
2022-09-12T08:39:02.925Z,6.27
2022-09-12T08:41:30.396Z,5.40
2022-09-12T08:44:30.642Z,5.93
2022-09-12T08:47:19.191Z,6.95
2022-09-12T08:50:01.710Z,7.53
2022-09-12T08:52:54.726Z,7.85
2022-09-12T08:55:33.447Z,5.90
2022-09-12T08:58:35.338Z,5.88
2022-09-12T09:01:12.975Z,4.30
2022-09-12T09:04:13.100Z,9.05
2022-09-12T09:06:47.315Z,3.92
2022-09-12T09:09:20.355Z,7.57
2022-09-12T09:12:15.349Z,6.00
2022-09-12T09:14:59.025Z,4.00
2022-09-12T09:17:31.217Z,5.20
2022-09-12T09:20:22.219Z,3.85
2022-09-12T09:22:56.945Z,5.07
2022-09-12T09:25:29.455Z,2.88
2022-09-12T09:28:11.515Z,3.10
2022-09-12T09:30:41.695Z,3.47
2022-09-12T09:33:17.647Z,2.60
2022-09-12T09:35:47.333Z,2.80
2022-09-12T09:38:39.837Z,2.80
2022-09-12T09:41:20.752Z,2.95
2022-09-12T09:43:47.929Z,8.07
2022-09-12T09:46:16.188Z,2.10
2022-09-12T09:48:50.055Z,2.17
2022-09-12T09:51:25.276Z,2.03
2022-09-12T09:54:03.178Z,1.85
2022-09-12T09:56:40.875Z,2.17
2022-09-12T09:59:13.886Z,1.40
2022-09-12T10:01:45.143Z,1.92
2022-09-12T10:04:28.024Z,1.85
2022-09-12T10:06:58.599Z,1.98
2022-09-12T10:09:33.078Z,1.90
2022-09-12T10:12:19.262Z,2.03
2022-09-12T10:15:00.750Z,2.17
2022-09-12T10:17:39.841Z,2.20
2022-09-12T10:20:31.177Z,2.58
2022-09-12T10:23:23.271Z,2.15
2022-09-12T10:25:58.413Z,1.80
2022-09-12T10:28:34.278Z,1.98
2022-09-12T10:31:02.831Z,1.55
2022-09-12T10:33:31.807Z,1.67
2022-09-12T10:36:00.102Z,2.35
2022-09-12T10:38:31.079Z,2.00
2022-09-12T10:41:03.718Z,1.60
2022-09-12T10:43:33.871Z,1.50
2022-09-12T10:46:23.085Z,1.48
2022-09-12T10:49:12.218Z,1.75
2022-09-12T10:51:39.360Z,1.90
2022-09-12T10:54:10.443Z,2.08
2022-09-12T10:57:11.441Z,1.83
2022-09-12T11:00:05.462Z,2.33
2022-09-12T11:03:20.356Z,1.48
2022-09-12T11:05:50.663Z,2.58
2022-09-12T11:08:46.154Z,1.70
2022-09-12T11:11:44.338Z,1.50
2022-09-12T11:14:25.329Z,1.48
2022-09-12T11:17:30.241Z,1.58
2022-09-12T11:20:18.466Z,1.40
2022-09-12T11:23:05.359Z,1.83
2022-09-12T11:25:38.795Z,3.97
2022-09-12T11:28:36.839Z,1.42
2022-09-12T11:31:19.829Z,2.00
2022-09-12T11:33:51.327Z,2.38
2022-09-12T11:36:51.535Z,1.60
2022-09-12T11:39:28.946Z,1.60
2022-09-12T11:42:01.220Z,1.40
2022-09-12T11:44:40.740Z,2.10
2022-09-12T11:47:12.724Z,1.40
2022-09-12T11:50:16.411Z,1.40
2022-09-12T11:52:43.958Z,1.30
2022-09-12T11:55:28.534Z,1.48
2022-09-12T11:57:59.173Z,2.13
2022-09-12T12:00:38.483Z,3.83
2022-09-12T12:03:15.431Z,1.67
2022-09-12T12:05:52.341Z,1.40
2022-09-12T12:08:40.754Z,1.60
2022-09-12T12:11:14.312Z,1.55
2022-09-12T12:13:51.495Z,1.40
2022-09-12T12:16:27.496Z,3.20
2022-09-12T12:19:00.602Z,1.65
2022-09-12T12:21:41.636Z,1.83
2022-09-12T12:24:08.877Z,1.73
2022-09-12T12:26:38.895Z,1.42
2022-09-12T12:29:18.389Z,1.75
2022-09-12T12:32:04.152Z,1.70
2022-09-12T12:34:37.663Z,1.50
2022-09-12T12:37:20.785Z,2.45
2022-09-12T12:39:48.445Z,1.50
2022-09-12T12:42:45.022Z,1.73
2022-09-12T12:45:18.396Z,4.20
2022-09-12T12:47:50.220Z,2.60
2022-09-12T12:50:18.013Z,2.22
2022-09-12T12:52:50.898Z,1.73
2022-09-12T12:55:51.725Z,3.20
2022-09-12T12:58:27.902Z,1.95
2022-09-12T13:01:12.530Z,1.88
2022-09-12T13:03:47.446Z,1.70
2022-09-12T13:06:44.247Z,1.40
2022-09-12T13:09:14.497Z,1.75
2022-09-12T13:11:42.216Z,1.70
2022-09-12T13:14:49.624Z,1.50
2022-09-12T13:17:51.422Z,2.03
2022-09-12T13:20:28.685Z,1.52
2022-09-12T13:23:00.449Z,1.88
2022-09-12T13:25:36.626Z,2.33
2022-09-12T13:28:16.154Z,1.85
2022-09-12T13:30:48.403Z,1.60
2022-09-12T13:33:56.015Z,1.70
2022-09-12T13:36:32.795Z,2.03
2022-09-12T13:39:28.282Z,1.58
2022-09-12T13:42:20.978Z,1.70
2022-09-12T13:44:51.915Z,1.60
2022-09-12T13:47:33.606Z,1.80
2022-09-12T13:50:23.467Z,1.70
2022-09-12T13:52:58.588Z,1.45
2022-09-12T13:55:29.860Z,1.85
2022-09-12T13:58:07.379Z,1.70
2022-09-12T14:00:35.685Z,1.80
2022-09-12T14:03:58.547Z,2.63
2022-09-12T14:06:29.183Z,1.80
2022-09-12T14:08:57.658Z,1.67
2022-09-12T14:11:30.997Z,1.90
2022-09-12T14:13:59.308Z,2.10
2022-09-12T14:16:29.267Z,1.70
2022-09-12T14:18:57.662Z,2.00
2022-09-12T14:21:35.679Z,2.22
2022-09-12T14:24:07.077Z,1.75
2022-09-12T14:26:36.791Z,1.90
2022-09-12T14:29:13.826Z,1.92
2022-09-12T14:31:41.667Z,2.10
2022-09-12T14:34:15.180Z,2.40
2022-09-12T14:36:56.123Z,5.20
2022-09-12T14:39:33.798Z,2.17
2022-09-12T14:42:22.791Z,2.00
2022-09-12T14:45:29.968Z,3.88
2022-09-12T14:47:59.202Z,2.15
2022-09-12T14:50:31.722Z,4.30
2022-09-12T14:53:25.012Z,1.92
2022-09-12T14:55:54.150Z,5.45
2022-09-12T14:58:22.535Z,3.08
2022-09-12T15:01:22.639Z,2.50
2022-09-12T15:03:54.046Z,4.40
2022-09-12T15:06:29.454Z,1.98
2022-09-12T15:09:03.048Z,2.47
2022-09-12T15:11:30.320Z,4.30
2022-09-12T15:13:58.823Z,4.55
2022-09-12T15:16:26.112Z,2.20
2022-09-12T15:18:53.495Z,3.63
2022-09-12T15:21:21.837Z,2.45
2022-09-12T15:23:51.409Z,2.92
2022-09-12T15:26:30.643Z,1.88
2022-09-12T15:28:58.411Z,5.35
2022-09-12T15:31:28.679Z,2.35
2022-09-12T15:33:58.199Z,1.85
2022-09-12T15:36:26.266Z,2.05
2022-09-12T15:38:53.741Z,1.67
2022-09-12T15:41:35.982Z,4.80
2022-09-12T15:44:05.418Z,1.52
2022-09-12T15:46:33.397Z,2.97
2022-09-12T15:49:01.704Z,1.85
2022-09-12T15:51:29.665Z,4.20
2022-09-12T15:53:57.446Z,1.27
2022-09-12T15:56:25.392Z,1.10
2022-09-12T15:59:00.846Z,2.38
2022-09-12T16:01:29.701Z,1.08
2022-09-12T16:03:57.437Z,1.80
2022-09-12T16:09:32.018Z,1.17
2022-09-12T16:11:59.697Z,1.23
2022-09-12T16:14:34.937Z,1.05
2022-09-12T16:17:02.988Z,1.30
2022-09-12T16:19:31.007Z,1.20
2022-09-12T16:21:58.825Z,1.30
2022-09-12T16:24:26.610Z,1.30
2022-09-12T16:26:56.867Z,1.30
2022-09-12T16:29:28.205Z,1.40
2022-09-12T16:31:57.170Z,1.20
2022-09-12T16:34:24.638Z,1.48
2022-09-12T16:36:53.163Z,1.10
2022-09-12T16:39:20.885Z,1.20
2022-09-12T16:41:48.592Z,1.45
2022-09-12T16:44:16.296Z,1.10
2022-09-12T16:46:43.983Z,1.20
2022-09-12T16:49:12.266Z,1.20
2022-09-12T16:51:44.100Z,1.20
2022-09-12T16:54:11.736Z,0.90
2022-09-12T16:56:39.568Z,1.42
2022-09-12T16:59:10.005Z,1.10
2022-09-12T17:01:37.591Z,1.20
2022-09-12T17:04:05.128Z,1.15
2022-09-12T17:06:33.425Z,1.35
2022-09-12T17:09:05.102Z,2.03
2022-09-12T17:11:38.341Z,5.82
2022-09-12T17:14:08.887Z,2.15
2022-09-12T17:16:42.258Z,2.15
2022-09-12T17:19:15.914Z,1.75
2022-09-12T17:21:45.122Z,2.40
2022-09-12T17:24:12.784Z,4.07
2022-09-12T17:26:41.551Z,4.90
2022-09-12T17:29:10.830Z,3.47
2022-09-12T17:31:39.063Z,3.47
2022-09-12T17:34:07.111Z,3.45
2022-09-12T17:36:37.408Z,2.45
2022-09-12T17:39:05.270Z,3.10
2022-09-12T17:41:57.760Z,2.75
2022-09-12T17:44:29.957Z,3.55
2022-09-12T17:47:06.642Z,3.45
2022-09-12T17:49:34.010Z,3.55
2022-09-12T17:52:04.928Z,3.63
2022-09-12T17:54:33.052Z,4.83
2022-09-12T17:57:01.222Z,5.13
2022-09-12T17:59:29.957Z,3.67
2022-09-12T18:02:16.513Z,4.90
2022-09-12T18:04:49.101Z,3.90
2022-09-12T18:07:19.169Z,3.60
2022-09-12T18:09:50.840Z,4.13
2022-09-12T18:12:20.334Z,2.93
2022-09-12T18:14:47.999Z,3.80
2022-09-12T18:17:15.655Z,2.80
2022-09-12T18:19:50.283Z,2.20
2022-09-12T18:22:21.053Z,4.70
2022-09-12T18:24:51.153Z,3.57
2022-09-12T18:27:18.817Z,5.00
2022-09-12T18:29:58.860Z,3.57
2022-09-12T18:32:35.605Z,2.43
2022-09-12T18:35:03.273Z,4.97
2022-09-12T18:37:31.301Z,5.37
2022-09-12T18:39:59.259Z,4.93
2022-09-12T18:42:27.133Z,3.90
2022-09-12T18:44:54.825Z,3.27
2022-09-12T18:47:24.009Z,4.40
2022-09-12T18:49:54.649Z,7.57
2022-09-12T18:56:15.221Z,3.83
2022-09-12T18:59:09.896Z,2.10
2022-09-12T19:01:58.720Z,4.73
2022-09-12T19:04:52.766Z,6.70
2022-09-12T19:07:44.562Z,2.70
2022-09-12T19:10:43.010Z,2.30
2022-09-12T19:13:33.300Z,2.50
2022-09-12T19:16:07.311Z,5.60
2022-09-12T19:18:52.656Z,8.67
2022-09-12T19:21:30.404Z,6.40
2022-09-12T19:24:29.355Z,3.13
2022-09-12T19:27:08.720Z,2.57
2022-09-12T19:32:48.836Z,2.70
2022-09-12T19:35:32.995Z,3.03
2022-09-12T19:38:12.911Z,3.63
2022-09-12T19:40:41.370Z,2.97
2022-09-12T19:43:15.037Z,2.70
2022-09-12T19:46:04.873Z,7.97
2022-09-12T19:48:53.709Z,4.43
2022-09-12T19:51:37.631Z,6.10
2022-09-12T19:54:24.993Z,3.87
2022-09-12T19:57:03.026Z,2.20
2022-09-12T19:59:48.862Z,4.93
2022-09-12T20:02:19.768Z,7.60
2022-09-12T20:05:23.957Z,2.50
2022-09-12T20:08:06.378Z,3.57
2022-09-12T20:10:56.941Z,6.67
2022-09-12T20:13:34.070Z,3.73
2022-09-12T20:16:39.450Z,3.60
2022-09-12T20:19:42.014Z,2.60
2022-09-12T20:22:14.474Z,3.70
2022-09-12T20:24:58.837Z,6.40
2022-09-12T20:31:12.252Z,5.10
2022-09-12T20:34:03.294Z,3.20
2022-09-12T20:36:34.494Z,6.27
2022-09-12T20:39:05.343Z,6.27
2022-09-12T20:41:36.354Z,3.47
2022-09-12T20:44:05.692Z,3.97
2022-09-12T20:46:33.865Z,4.03
2022-09-12T20:49:01.860Z,4.27
2022-09-12T20:51:30.658Z,6.80
2022-09-12T20:54:01.147Z,4.60
2022-09-12T20:56:29.823Z,3.40
2022-09-12T20:58:58.551Z,4.50
2022-09-12T21:01:28.177Z,5.33
2022-09-12T21:03:56.460Z,4.30
2022-09-12T21:06:24.744Z,2.87
2022-09-12T21:08:52.914Z,4.97
2022-09-12T21:11:21.257Z,3.97
2022-09-12T21:13:52.231Z,5.33
2022-09-12T21:16:22.098Z,3.23
2022-09-12T21:18:55.346Z,5.33
2022-09-12T21:21:23.510Z,5.43
2022-09-12T21:23:51.915Z,4.07
2022-09-12T21:26:19.924Z,4.33
2022-09-12T21:28:48.968Z,5.70
2022-09-12T21:31:16.789Z,6.80
2022-09-12T21:33:44.828Z,4.00
2022-09-12T21:36:12.734Z,4.67
2022-09-12T21:38:40.228Z,3.73
2022-09-12T21:41:15.670Z,9.37
2022-09-12T21:43:43.846Z,3.37
2022-09-12T21:46:11.802Z,4.87
2022-09-12T21:48:39.577Z,3.17
2022-09-12T21:51:10.187Z,3.30
2022-09-12T21:53:38.154Z,3.50
2022-09-12T21:56:08.103Z,4.13
2022-09-12T21:58:36.697Z,5.40
2022-09-12T22:01:06.011Z,4.30
2022-09-12T22:03:35.103Z,3.77
2022-09-12T22:06:05.960Z,5.30
2022-09-12T22:08:40.621Z,5.00
2022-09-12T22:11:10.498Z,6.10
2022-09-12T22:13:39.544Z,5.33
2022-09-12T22:16:07.983Z,3.70
2022-09-12T22:18:36.803Z,3.90
2022-09-12T22:21:12.942Z,3.73
2022-09-12T22:23:59.358Z,4.57
2022-09-12T22:26:31.392Z,4.27
2022-09-12T22:28:59.035Z,3.70
2022-09-12T22:31:27.505Z,6.30
2022-09-12T22:33:59.553Z,2.73
2022-09-12T22:36:31.085Z,3.73
2022-09-12T22:39:00.159Z,3.40
2022-09-12T22:41:28.645Z,6.40
2022-09-12T22:43:58.990Z,2.97
2022-09-12T22:46:27.455Z,6.13
2022-09-12T22:48:55.865Z,6.40
2022-09-12T22:51:23.650Z,3.83
2022-09-12T22:53:51.672Z,6.60
2022-09-12T22:56:19.523Z,5.10
2022-09-12T22:58:47.283Z,9.53
2022-09-12T23:01:15.520Z,8.27
2022-09-12T23:03:44.791Z,8.17
2022-09-12T23:06:12.591Z,4.93
2022-09-12T23:08:40.549Z,4.80
2022-09-12T23:11:11.328Z,6.40
2022-09-12T23:13:42.845Z,6.83
2022-09-12T23:16:23.823Z,4.53
2022-09-12T23:18:52.091Z,6.17
2022-09-12T23:21:21.816Z,7.57
2022-09-12T23:23:50.601Z,9.80
2022-09-12T23:26:21.124Z,3.60
2022-09-12T23:28:54.206Z,5.03
2022-09-12T23:31:23.481Z,3.93
2022-09-12T23:33:54.878Z,4.30
2022-09-12T23:36:23.923Z,2.97
2022-09-12T23:38:51.797Z,10.37
2022-09-12T23:41:19.915Z,4.80
2022-09-12T23:43:47.617Z,4.13
2022-09-12T23:46:17.330Z,3.73
2022-09-12T23:48:45.994Z,9.00
2022-09-12T23:51:14.100Z,3.30
2022-09-12T23:53:42.229Z,4.13
2022-09-12T23:56:11.511Z,3.93
2022-09-12T23:58:39.196Z,4.40
